createdAt,value
2022-09-12T00:01:31.724Z,96517.06
2022-09-12T00:04:04.606Z,96519.91
2022-09-12T00:06:34.906Z,96509.91
2022-09-12T00:09:07.735Z,96511.19
2022-09-12T00:11:38.015Z,96501.84
2022-09-12T00:14:07.746Z,96507.78
2022-09-12T00:16:37.489Z,96503.84
2022-09-12T00:19:07.226Z,96505.25
2022-09-12T00:21:37.397Z,96505.34
2022-09-12T00:24:07.878Z,96495.44
2022-09-12T00:26:36.856Z,96495.78
2022-09-12T00:29:05.347Z,96494.34
2022-09-12T00:31:33.792Z,96493.31
2022-09-12T00:34:02.517Z,96487.19
2022-09-12T00:36:31.409Z,96488.19
2022-09-12T00:39:00.405Z,96489.56
2022-09-12T00:41:32.159Z,96487.81
2022-09-12T00:44:02.410Z,96489.38
2022-09-12T00:46:40.217Z,96491.16
2022-09-12T00:49:15.260Z,96483.19
2022-09-12T00:51:47.776Z,96485.94
2022-09-12T00:54:23.326Z,96487.19
2022-09-12T00:56:56.891Z,96478.31
2022-09-12T00:59:30.543Z,96470.53
2022-09-12T01:01:59.176Z,96469.00
2022-09-12T01:04:29.079Z,96469.47
2022-09-12T01:06:59.519Z,96462.94
2022-09-12T01:09:27.943Z,96468.56
2022-09-12T01:11:58.432Z,96463.66
2022-09-12T01:14:26.926Z,96456.38
2022-09-12T01:16:55.389Z,96451.88
2022-09-12T01:19:51.329Z,96457.19
2022-09-12T01:22:37.854Z,96451.50
2022-09-12T01:25:20.621Z,96453.81
2022-09-12T01:28:08.021Z,96441.00
2022-09-12T01:30:49.241Z,96438.81
2022-09-12T01:33:37.532Z,96438.97
2022-09-12T01:36:24.239Z,96435.88
2022-09-12T01:39:02.311Z,96436.22
2022-09-12T01:41:42.468Z,96427.25
2022-09-12T01:44:20.132Z,96422.75
2022-09-12T01:46:56.499Z,96427.88
2022-09-12T01:49:28.317Z,96418.53
2022-09-12T01:52:02.423Z,96420.38
2022-09-12T01:54:37.530Z,96421.19
2022-09-12T01:57:13.423Z,96413.22
2022-09-12T01:59:46.449Z,96411.38
2022-09-12T02:02:20.973Z,96412.88
2022-09-12T02:04:55.875Z,96414.69
2022-09-12T02:07:30.437Z,96416.53
2022-09-12T02:10:07.336Z,96410.22
2022-09-12T02:12:42.145Z,96406.53
2022-09-12T02:15:13.673Z,96402.88
2022-09-12T02:17:45.354Z,96407.16
2022-09-12T02:20:37.429Z,96401.50
2022-09-12T02:23:13.209Z,96398.47
2022-09-12T02:25:46.702Z,96395.81
2022-09-12T02:28:18.879Z,96400.09
2022-09-12T02:30:55.223Z,96398.25
2022-09-12T02:33:32.073Z,96398.25
2022-09-12T02:36:11.211Z,96392.94
2022-09-12T02:38:46.407Z,96392.13
2022-09-12T02:41:18.683Z,96389.47
2022-09-12T02:43:47.902Z,96389.47
2022-09-12T02:46:20.391Z,96386.81
2022-09-12T02:48:50.245Z,96384.78
2022-09-12T02:51:23.390Z,96386.47
2022-09-12T02:53:52.446Z,96386.63
2022-09-12T02:56:27.970Z,96380.50
2022-09-12T02:59:00.188Z,96378.84
2022-09-12T03:01:39.315Z,96384.78
2022-09-12T03:04:33.190Z,96382.13
2022-09-12T03:07:13.436Z,96382.94
2022-09-12T03:09:49.113Z,96373.34
2022-09-12T03:12:34.111Z,96376.19
2022-09-12T03:15:14.884Z,96387.00
2022-09-12T03:18:07.255Z,96384.91
2022-09-12T03:20:46.157Z,96380.41
2022-09-12T03:23:23.117Z,96381.22
2022-09-12T03:25:58.254Z,96383.06
2022-09-12T03:28:27.581Z,96389.75
2022-09-12T03:30:56.536Z,96382.72
2022-09-12T03:33:26.930Z,96390.38
2022-09-12T03:35:57.294Z,96389.13
2022-09-12T03:38:25.672Z,96389.84
2022-09-12T03:40:55.003Z,96390.09
2022-09-12T03:43:23.443Z,96381.03
2022-09-12T03:45:53.434Z,96393.06
2022-09-12T03:48:22.194Z,96391.53
2022-09-12T03:50:50.539Z,96388.75
2022-09-12T03:53:20.265Z,96384.97
2022-09-12T03:55:48.576Z,96389.38
2022-09-12T03:58:16.903Z,96389.88
2022-09-12T04:00:45.516Z,96393.44
2022-09-12T04:03:13.911Z,96398.25
2022-09-12T04:05:42.265Z,96389.84
2022-09-12T04:08:10.559Z,96387.00
2022-09-12T04:10:40.286Z,96384.66
2022-09-12T04:13:08.779Z,96388.91
2022-09-12T04:15:37.145Z,96398.44
2022-09-12T04:18:06.227Z,96386.25
2022-09-12T04:20:34.680Z,96392.88
2022-09-12T04:23:03.079Z,96390.50
2022-09-12T04:25:31.430Z,96391.69
2022-09-12T04:28:01.115Z,96384.72
2022-09-12T04:30:29.526Z,96392.88
2022-09-12T04:32:57.884Z,96386.22
2022-09-12T04:35:26.882Z,96394.44
2022-09-12T04:37:55.257Z,96390.41
2022-09-12T04:40:23.672Z,96385.19
2022-09-12T04:42:51.994Z,96390.75
2022-09-12T04:45:21.726Z,96391.00
2022-09-12T04:47:50.311Z,96395.38
2022-09-12T04:50:19.380Z,96393.25
2022-09-12T04:52:51.316Z,96381.66
2022-09-12T04:55:19.811Z,96387.53
2022-09-12T04:57:48.147Z,96388.28
2022-09-12T05:00:16.909Z,96383.09
2022-09-12T05:02:46.619Z,96385.19
2022-09-12T05:05:15.004Z,96386.31
2022-09-12T05:07:44.623Z,96389.44
2022-09-12T05:10:14.146Z,96390.72
2022-09-12T05:12:42.920Z,96387.06
2022-09-12T05:15:11.994Z,96388.34
2022-09-12T05:17:40.328Z,96390.63
2022-09-12T05:20:12.782Z,96392.28
2022-09-12T05:22:41.193Z,96393.94
2022-09-12T05:25:10.694Z,96398.72
2022-09-12T05:27:39.139Z,96402.00
2022-09-12T05:30:08.856Z,96404.28
2022-09-12T05:32:37.315Z,96402.09
2022-09-12T05:35:06.274Z,96408.25
2022-09-12T05:37:36.025Z,96403.59
2022-09-12T05:40:07.603Z,96413.19
2022-09-12T05:42:36.831Z,96426.47
2022-09-12T05:45:06.019Z,96418.97
2022-09-12T05:47:34.332Z,96415.75
2022-09-12T05:50:02.843Z,96425.22
2022-09-12T05:52:33.309Z,96432.16
2022-09-12T05:55:03.335Z,96420.53
2022-09-12T05:57:33.278Z,96430.78
2022-09-12T06:00:04.610Z,96417.31
2022-09-12T06:02:33.028Z,96421.63
2022-09-12T06:05:01.855Z,96425.94
2022-09-12T06:07:31.188Z,96409.00
2022-09-12T06:09:59.827Z,96417.59
2022-09-12T06:12:31.016Z,96411.91
2022-09-12T06:14:59.337Z,96410.34
2022-09-12T06:17:27.676Z,96409.19
2022-09-12T06:19:56.961Z,96413.97
2022-09-12T06:22:25.497Z,96409.13
2022-09-12T06:24:57.771Z,96419.19
2022-09-12T06:27:26.633Z,96411.84
2022-09-12T06:29:56.782Z,96406.53
2022-09-12T06:32:25.254Z,96413.13
2022-09-12T06:34:53.620Z,96395.16
2022-09-12T06:37:22.015Z,96400.09
2022-09-12T06:39:50.392Z,96400.75
2022-09-12T06:42:20.041Z,96394.84
2022-09-12T06:44:48.544Z,96411.25
2022-09-12T06:47:18.254Z,96405.59
2022-09-12T06:49:47.595Z,96412.19
2022-09-12T06:52:15.970Z,96411.59
2022-09-12T06:54:44.303Z,96407.78
2022-09-12T06:57:13.469Z,96403.09
2022-09-12T06:59:42.436Z,96400.88
2022-09-12T07:02:10.983Z,96409.09
2022-09-12T07:04:40.670Z,96406.91
2022-09-12T07:07:09.463Z,96410.81
2022-09-12T07:09:37.832Z,96415.38
2022-09-12T07:12:07.039Z,96420.34
2022-09-12T07:14:35.479Z,96426.56
2022-09-12T07:17:04.077Z,96419.03
2022-09-12T07:19:32.678Z,96413.94
2022-09-12T07:22:02.739Z,96403.75
2022-09-12T07:24:31.097Z,96411.59
2022-09-12T07:26:59.537Z,96402.88
2022-09-12T07:29:43.127Z,96410.72
2022-09-12T07:32:12.153Z,96408.28
2022-09-12T07:34:40.481Z,96418.22
2022-09-12T07:37:10.265Z,96407.63
2022-09-12T07:39:38.896Z,96411.38
2022-09-12T07:42:07.919Z,96414.06
2022-09-12T07:44:36.312Z,96413.09
2022-09-12T07:47:04.939Z,96415.00
2022-09-12T07:49:33.275Z,96417.72
2022-09-12T07:52:01.699Z,96417.75
2022-09-12T07:54:33.204Z,96418.81
2022-09-12T07:57:01.659Z,96420.91
2022-09-12T07:59:51.540Z,96427.72
2022-09-12T08:02:19.635Z,96422.44
2022-09-12T08:04:49.376Z,96423.69
2022-09-12T08:07:19.426Z,96417.75
2022-09-12T08:09:49.502Z,96415.31
2022-09-12T08:12:20.273Z,96414.53
2022-09-12T08:14:48.591Z,96423.19
2022-09-12T08:17:19.707Z,96423.41
2022-09-12T08:19:48.301Z,96427.13
2022-09-12T08:22:22.736Z,96416.72
2022-09-12T08:24:52.730Z,96415.72
2022-09-12T08:27:21.741Z,96419.88
2022-09-12T08:29:50.127Z,96425.22
2022-09-12T08:32:18.462Z,96427.94
2022-09-12T08:34:48.265Z,96424.22
2022-09-12T08:37:20.745Z,96423.00
2022-09-12T08:39:49.117Z,96432.69
2022-09-12T08:42:33.623Z,96427.34
2022-09-12T08:45:20.697Z,96420.78
2022-09-12T08:47:50.322Z,96421.41
2022-09-12T08:50:20.766Z,96422.47
2022-09-12T08:52:58.633Z,96421.63
2022-09-12T08:55:32.249Z,96416.09
2022-09-12T08:58:03.564Z,96413.19
2022-09-12T09:00:41.311Z,96413.25
2022-09-12T09:03:32.565Z,96416.50
2022-09-12T09:06:08.432Z,96413.66
2022-09-12T09:08:52.311Z,96412.38
2022-09-12T09:11:37.581Z,96409.50
2022-09-12T09:14:58.426Z,96408.22
2022-09-12T09:17:33.489Z,96409.03
2022-09-12T09:20:10.266Z,96401.84
2022-09-12T09:22:44.649Z,96405.31
2022-09-12T09:25:22.896Z,96396.44
2022-09-12T09:27:59.681Z,96398.25
2022-09-12T09:30:29.698Z,96393.91
2022-09-12T09:33:00.818Z,96383.38
2022-09-12T09:35:40.183Z,96384.19
2022-09-12T09:38:24.704Z,96386.25
2022-09-12T09:41:08.336Z,96389.69
2022-09-12T09:43:38.726Z,96379.78
2022-09-12T09:46:08.835Z,96380.56
2022-09-12T09:48:39.171Z,96376.81
2022-09-12T09:51:09.323Z,96376.16
2022-09-12T09:53:45.173Z,96370.16
2022-09-12T09:56:26.176Z,96366.38
2022-09-12T09:58:54.587Z,96372.31
2022-09-12T10:01:25.364Z,96365.28
2022-09-12T10:03:55.639Z,96363.19
2022-09-12T10:06:28.963Z,96360.22
2022-09-12T10:09:09.007Z,96364.28
2022-09-12T10:11:42.490Z,96371.00
2022-09-12T10:14:39.022Z,96367.03
2022-09-12T10:17:34.289Z,96363.84
2022-09-12T10:20:21.033Z,96362.91
2022-09-12T10:22:50.295Z,96363.78
2022-09-12T10:25:21.182Z,96361.44
2022-09-12T10:27:55.485Z,96360.66
2022-09-12T10:30:25.894Z,96359.91
2022-09-12T10:33:01.979Z,96349.91
2022-09-12T10:35:33.515Z,96343.44
2022-09-12T10:38:06.117Z,96349.56
2022-09-12T10:40:40.091Z,96349.84
2022-09-12T10:43:19.336Z,96344.94
2022-09-12T10:45:47.756Z,96349.66
2022-09-12T10:48:29.852Z,96335.09
2022-09-12T10:50:58.928Z,96334.88
2022-09-12T10:53:34.143Z,96339.47
2022-09-12T10:56:10.428Z,96334.22
2022-09-12T10:58:56.893Z,96335.28
2022-09-12T11:01:37.550Z,96340.47
2022-09-12T11:04:27.676Z,96323.28
2022-09-12T11:07:21.157Z,96331.34
2022-09-12T11:09:59.492Z,96322.69
2022-09-12T11:12:37.302Z,96325.50
2022-09-12T11:15:23.674Z,96316.16
2022-09-12T11:18:00.381Z,96325.72
2022-09-12T11:20:59.401Z,96320.94
2022-09-12T11:23:45.731Z,96316.97
2022-09-12T11:26:26.385Z,96316.72
2022-09-12T11:29:05.408Z,96311.53
2022-09-12T11:31:53.918Z,96310.59
2022-09-12T11:34:33.525Z,96308.94
2022-09-12T11:37:20.424Z,96310.44
2022-09-12T11:39:55.688Z,96308.31
2022-09-12T11:42:31.596Z,96305.09
2022-09-12T11:45:09.085Z,96307.16
2022-09-12T11:47:38.676Z,96309.19
2022-09-12T11:50:20.234Z,96297.44
2022-09-12T11:52:52.223Z,96309.72
2022-09-12T11:55:26.288Z,96303.09
2022-09-12T11:57:56.093Z,96298.09
2022-09-12T12:00:28.680Z,96293.03
2022-09-12T12:03:06.010Z,96291.81
2022-09-12T12:05:43.326Z,96289.59
2022-09-12T12:08:14.600Z,96296.78
2022-09-12T12:10:45.002Z,96293.94
2022-09-12T12:13:21.020Z,96295.38
2022-09-12T12:15:53.495Z,96289.00
2022-09-12T12:18:26.085Z,96298.00
2022-09-12T12:20:56.346Z,96289.47
2022-09-12T12:23:32.491Z,96290.16
2022-09-12T12:26:04.522Z,96281.94
2022-09-12T12:28:59.317Z,96288.22
2022-09-12T12:31:27.930Z,96287.44
2022-09-12T12:34:04.094Z,96278.59
2022-09-12T12:36:40.336Z,96284.81
2022-09-12T12:39:55.537Z,96278.34
2022-09-12T12:43:04.536Z,96268.09
2022-09-12T12:46:05.975Z,96269.22
2022-09-12T12:48:52.479Z,96264.94
2022-09-12T12:51:44.526Z,96258.03
2022-09-12T12:54:32.828Z,96258.72
2022-09-12T12:57:15.505Z,96256.31
2022-09-12T12:59:50.101Z,96258.53
2022-09-12T13:02:25.267Z,96251.75
2022-09-12T13:04:55.434Z,96252.00
2022-09-12T13:07:31.371Z,96246.84
2022-09-12T13:10:02.421Z,96253.38
2022-09-12T13:12:34.709Z,96247.72
2022-09-12T13:15:04.848Z,96248.28
2022-09-12T13:17:39.439Z,96241.78
2022-09-12T13:20:34.585Z,96238.53
2022-09-12T13:23:03.007Z,96237.78
2022-09-12T13:25:32.527Z,96230.31
2022-09-12T13:28:04.224Z,96233.63
2022-09-12T13:30:34.872Z,96227.72
2022-09-12T13:33:22.141Z,96226.97
2022-09-12T13:36:25.029Z,96222.44
2022-09-12T13:39:06.503Z,96219.50
2022-09-12T13:41:53.296Z,96222.00
2022-09-12T13:44:24.401Z,96210.91
2022-09-12T13:46:53.655Z,96209.53
2022-09-12T13:49:30.488Z,96216.03
2022-09-12T13:52:01.638Z,96206.91
2022-09-12T13:54:31.352Z,96201.50
2022-09-12T13:56:59.989Z,96203.16
2022-09-12T13:59:28.450Z,96198.81
2022-09-12T14:01:57.067Z,96205.28
2022-09-12T14:04:41.963Z,96202.84
2022-09-12T14:07:18.916Z,96198.25
2022-09-12T14:09:54.350Z,96190.19
2022-09-12T14:12:26.869Z,96190.22
2022-09-12T14:14:55.401Z,96184.53
2022-09-12T14:17:29.431Z,96182.66
2022-09-12T14:20:03.860Z,96183.47
2022-09-12T14:22:34.192Z,96187.78
2022-09-12T14:25:02.802Z,96181.88
2022-09-12T14:27:38.090Z,96180.03
2022-09-12T14:30:09.220Z,96183.03
2022-09-12T14:32:37.755Z,96187.09
2022-09-12T14:35:18.097Z,96179.00
2022-09-12T14:37:49.325Z,96179.25
2022-09-12T14:40:20.719Z,96171.13
2022-09-12T14:42:51.132Z,96170.88
2022-09-12T14:45:26.526Z,96165.47
2022-09-12T14:47:55.570Z,96166.56
2022-09-12T14:50:29.088Z,96162.47
2022-09-12T14:53:08.115Z,96157.59
2022-09-12T14:55:44.601Z,96157.81
2022-09-12T14:58:17.790Z,96161.03
2022-09-12T15:00:57.744Z,96159.13
2022-09-12T15:03:30.149Z,96166.41
2022-09-12T15:06:00.594Z,96160.94
2022-09-12T15:08:28.941Z,96158.22
2022-09-12T15:10:57.486Z,96155.19
2022-09-12T15:13:28.020Z,96164.84
2022-09-12T15:15:58.083Z,96159.06
2022-09-12T15:18:28.279Z,96164.41
2022-09-12T15:21:02.354Z,96152.94
2022-09-12T15:23:35.792Z,96160.50
2022-09-12T15:26:05.093Z,96153.53
2022-09-12T15:28:34.508Z,96161.63
2022-09-12T15:31:08.523Z,96150.25
2022-09-12T15:33:36.954Z,96160.00
2022-09-12T15:36:15.408Z,96153.53
2022-09-12T15:38:44.758Z,96156.50
2022-09-12T15:41:17.113Z,96154.94
2022-09-12T15:43:45.901Z,96155.19
2022-09-12T15:46:17.056Z,96150.78
2022-09-12T15:48:45.539Z,96153.69
2022-09-12T15:51:16.902Z,96152.00
2022-09-12T15:53:45.800Z,96145.25
2022-09-12T15:56:15.697Z,96145.50
2022-09-12T15:58:57.672Z,96145.25
2022-09-12T16:01:27.887Z,96147.97
2022-09-12T16:03:56.316Z,96143.16
2022-09-12T16:06:27.265Z,96145.56
2022-09-12T16:08:55.583Z,96148.03
2022-09-12T16:11:25.907Z,96150.16
2022-09-12T16:13:55.708Z,96145.53
2022-09-12T16:16:24.401Z,96148.69
2022-09-12T16:18:52.855Z,96152.97
2022-09-12T16:21:21.475Z,96154.81
2022-09-12T16:23:51.711Z,96153.69
2022-09-12T16:26:20.393Z,96148.25
2022-09-12T16:28:48.962Z,96152.78
2022-09-12T16:31:17.542Z,96133.34
2022-09-12T16:33:45.878Z,96140.03
2022-09-12T16:36:16.141Z,96133.53
2022-09-12T16:38:45.628Z,96131.84
2022-09-12T16:41:18.196Z,96129.09
2022-09-12T16:43:46.858Z,96130.94
2022-09-12T16:46:16.927Z,96135.72
2022-09-12T16:48:51.595Z,96133.78
2022-09-12T16:51:23.623Z,96126.47
2022-09-12T16:53:51.958Z,96129.88
2022-09-12T16:56:21.861Z,96127.41
2022-09-12T16:58:50.635Z,96127.31
2022-09-12T17:01:20.957Z,96120.50
2022-09-12T17:03:49.903Z,96122.00
2022-09-12T17:06:20.556Z,96125.13
2022-09-12T17:08:50.526Z,96122.06
2022-09-12T17:11:22.066Z,96117.59
2022-09-12T17:14:07.426Z,96121.75
2022-09-12T17:16:38.426Z,96122.66
2022-09-12T17:19:08.001Z,96126.00
2022-09-12T17:21:37.098Z,96130.44
2022-09-12T17:24:06.068Z,96127.84
2022-09-12T17:26:35.955Z,96118.53
2022-09-12T17:29:04.703Z,96127.81
2022-09-12T17:31:34.527Z,96124.72
2022-09-12T17:34:04.497Z,96120.19
2022-09-12T17:36:34.610Z,96123.25
2022-09-12T17:39:05.217Z,96117.25
2022-09-12T17:41:36.248Z,96121.94
2022-09-12T17:44:07.382Z,96119.66
2022-09-12T17:46:37.969Z,96117.09
2022-09-12T17:49:09.304Z,96126.94
2022-09-12T17:51:41.341Z,96121.38
2022-09-12T17:54:12.323Z,96125.97
2022-09-12T17:56:42.911Z,96120.97
2022-09-12T17:59:15.985Z,96123.31
2022-09-12T18:02:02.495Z,96136.09
2022-09-12T18:04:32.535Z,96129.78
2022-09-12T18:07:00.864Z,96136.69
2022-09-12T18:09:30.508Z,96135.50
2022-09-12T18:12:00.527Z,96130.84
2022-09-12T18:14:29.119Z,96134.81
2022-09-12T18:16:58.080Z,96142.03
2022-09-12T18:19:27.197Z,96140.53
2022-09-12T18:21:56.015Z,96138.66
2022-09-12T18:24:25.116Z,96139.59
2022-09-12T18:26:56.642Z,96133.25
2022-09-12T18:29:28.015Z,96142.22
2022-09-12T18:31:56.545Z,96147.81
2022-09-12T18:34:24.896Z,96146.75
2022-09-12T18:36:55.107Z,96159.22
2022-09-12T18:39:27.452Z,96147.81
2022-09-12T18:41:57.104Z,96151.25
2022-09-12T18:44:26.884Z,96149.00
2022-09-12T18:46:55.240Z,96163.88
2022-09-12T18:49:23.862Z,96147.34
2022-09-12T18:51:52.209Z,96153.31
2022-09-12T18:54:20.778Z,96144.94
2022-09-12T18:56:51.965Z,96149.38
2022-09-12T18:59:21.020Z,96150.31
2022-09-12T19:01:53.378Z,96147.94
2022-09-12T19:04:22.442Z,96144.81
2022-09-12T19:06:51.883Z,96148.69
2022-09-12T19:09:21.775Z,96145.78
2022-09-12T19:11:52.665Z,96145.16
2022-09-12T19:14:24.935Z,96144.22
2022-09-12T19:16:54.909Z,96139.44
2022-09-12T19:19:23.437Z,96147.28
2022-09-12T19:21:51.939Z,96149.88
2022-09-12T19:24:21.910Z,96145.13
2022-09-12T19:26:51.115Z,96138.88
2022-09-12T19:29:19.836Z,96140.50
2022-09-12T19:31:48.169Z,96142.16
2022-09-12T19:34:18.796Z,96132.78
2022-09-12T19:36:47.855Z,96138.66
2022-09-12T19:39:17.803Z,96138.50
2022-09-12T19:41:46.610Z,96136.88
2022-09-12T19:44:15.364Z,96138.41
2022-09-12T19:46:44.551Z,96135.97
2022-09-12T19:49:13.780Z,96138.28
2022-09-12T19:51:44.013Z,96127.25
2022-09-12T19:54:12.761Z,96130.00
2022-09-12T19:56:41.344Z,96139.31
2022-09-12T19:59:09.989Z,96133.59
2022-09-12T20:01:38.579Z,96136.94
2022-09-12T20:04:07.660Z,96134.69
2022-09-12T20:06:36.721Z,96134.16
2022-09-12T20:09:06.762Z,96131.88
2022-09-12T20:11:35.462Z,96131.63
2022-09-12T20:14:04.248Z,96134.84
2022-09-12T20:16:33.497Z,96138.06
2022-09-12T20:19:06.128Z,96136.22
2022-09-12T20:21:36.044Z,96138.28
2022-09-12T20:24:07.711Z,96148.84
2022-09-12T20:26:36.575Z,96143.91
2022-09-12T20:29:07.255Z,96144.34
2022-09-12T20:31:36.802Z,96138.63
2022-09-12T20:34:05.713Z,96143.19
2022-09-12T20:36:34.614Z,96140.41
2022-09-12T20:39:03.328Z,96146.59
2022-09-12T20:41:35.294Z,96137.63
2022-09-12T20:44:04.235Z,96141.75
2022-09-12T20:46:33.104Z,96141.63
2022-09-12T20:49:02.652Z,96140.88
2022-09-12T20:51:31.414Z,96138.81
2022-09-12T20:54:03.260Z,96132.88
2022-09-12T20:56:34.346Z,96140.50
2022-09-12T20:59:02.794Z,96145.22
2022-09-12T21:01:32.561Z,96139.03
2022-09-12T21:04:01.782Z,96143.13
2022-09-12T21:06:30.277Z,96143.75
2022-09-12T21:09:00.558Z,96145.81
2022-09-12T21:11:29.661Z,96139.84
2022-09-12T21:13:59.651Z,96147.91
2022-09-12T21:16:28.279Z,96152.25
2022-09-12T21:18:58.480Z,96148.59
2022-09-12T21:21:27.658Z,96138.97
2022-09-12T21:23:59.644Z,96132.63
2022-09-12T21:26:28.353Z,96135.53
2022-09-12T21:28:56.989Z,96134.72
2022-09-12T21:31:27.344Z,96126.72
2022-09-12T21:33:55.730Z,96128.59
2022-09-12T21:36:25.319Z,96133.13
2022-09-12T21:38:53.663Z,96146.47
2022-09-12T21:41:22.032Z,96138.06
2022-09-12T21:43:50.711Z,96138.50
2022-09-12T21:46:19.097Z,96142.38
2022-09-12T21:48:48.927Z,96137.03
2022-09-12T21:51:18.006Z,96142.59
2022-09-12T21:53:46.370Z,96132.50
2022-09-12T21:56:14.737Z,96140.72
2022-09-12T21:58:43.123Z,96138.47
2022-09-12T22:01:12.942Z,96140.72
2022-09-12T22:03:43.067Z,96141.78
2022-09-12T22:06:14.193Z,96133.13
2022-09-12T22:08:43.031Z,96138.88
2022-09-12T22:11:11.839Z,96136.22
2022-09-12T22:13:42.812Z,96145.03
2022-09-12T22:16:11.838Z,96135.19
2022-09-12T22:18:40.371Z,96134.56
2022-09-12T22:21:13.379Z,96136.81
2022-09-12T22:24:00.619Z,96135.59
2022-09-12T22:26:30.049Z,96128.81
2022-09-12T22:28:58.398Z,96130.44
2022-09-12T22:31:27.157Z,96124.31
2022-09-12T22:33:56.996Z,96129.00
2022-09-12T22:36:30.470Z,96130.66
2022-09-12T22:39:01.698Z,96124.94
2022-09-12T22:41:30.043Z,96129.22
2022-09-12T22:43:59.444Z,96124.69
2022-09-12T22:46:30.140Z,96130.03
2022-09-12T22:48:58.607Z,96130.25
2022-09-12T22:51:27.207Z,96128.19
2022-09-12T22:53:56.455Z,96123.28
2022-09-12T22:56:26.860Z,96123.09
2022-09-12T22:58:55.416Z,96121.66
2022-09-12T23:01:24.132Z,96118.34
2022-09-12T23:03:52.692Z,96116.91
2022-09-12T23:06:21.238Z,96119.59
2022-09-12T23:08:49.609Z,96116.50
2022-09-12T23:11:21.445Z,96112.63
2022-09-12T23:13:52.276Z,96115.91
2022-09-12T23:16:22.754Z,96112.38
2022-09-12T23:18:51.919Z,96117.47
2022-09-12T23:21:22.381Z,96118.47
2022-09-12T23:23:51.381Z,96115.16
2022-09-12T23:26:21.350Z,96112.78
2022-09-12T23:28:53.410Z,96116.06
2022-09-12T23:31:23.166Z,96111.97
2022-09-12T23:33:54.047Z,96110.00
2022-09-12T23:36:23.403Z,96107.56
2022-09-12T23:38:52.100Z,96107.59
2022-09-12T23:41:20.859Z,96103.09
2022-09-12T23:43:49.167Z,96098.13
2022-09-12T23:46:19.957Z,96090.16
2022-09-12T23:48:49.099Z,96080.97
2022-09-12T23:51:17.544Z,96095.69
2022-09-12T23:53:46.031Z,96082.59
2022-09-12T23:56:14.530Z,96083.75
2022-09-12T23:58:42.897Z,96083.94
